createdAt,value
2022-12-22T00:00:51.474Z,77.43
2022-12-22T00:03:37.611Z,88.10
2022-12-22T00:06:28.652Z,78.88
2022-12-22T00:09:14.365Z,80.03
2022-12-22T00:12:00.882Z,83.93
2022-12-22T00:14:50.001Z,81.40
2022-12-22T00:17:54.231Z,91.03
2022-12-22T00:20:40.194Z,91.65
2022-12-22T00:23:30.758Z,86.38
2022-12-22T00:26:17.725Z,87.10
2022-12-22T00:29:05.330Z,81.40
2022-12-22T00:31:51.647Z,88.88
2022-12-22T00:34:39.498Z,80.47
2022-12-22T00:37:31.927Z,87.47
2022-12-22T00:40:20.832Z,82.00
2022-12-22T00:43:08.976Z,85.47
2022-12-22T00:45:56.606Z,87.35
2022-12-22T00:48:45.182Z,82.20
2022-12-22T00:51:35.201Z,89.10
2022-12-22T00:54:21.364Z,83.13
2022-12-22T00:57:07.465Z,81.05
2022-12-22T00:59:56.211Z,80.38
2022-12-22T01:02:42.211Z,86.70
2022-12-22T01:05:28.575Z,91.45
2022-12-22T01:08:14.691Z,95.78
2022-12-22T01:11:00.911Z,81.78
2022-12-22T01:13:47.001Z,83.57
2022-12-22T01:16:32.776Z,76.70
2022-12-22T01:19:18.457Z,87.18
2022-12-22T01:22:04.151Z,85.95
2022-12-22T01:24:50.211Z,87.13
2022-12-22T01:27:36.225Z,81.93
2022-12-22T01:30:22.581Z,76.20
2022-12-22T01:33:08.122Z,77.43
2022-12-22T01:35:54.445Z,80.50
2022-12-22T01:38:42.095Z,82.15
2022-12-22T01:41:34.613Z,73.50
2022-12-22T01:44:20.428Z,80.88
2022-12-22T01:47:06.745Z,73.85
2022-12-22T01:49:59.699Z,77.47
2022-12-22T01:52:51.869Z,77.30
2022-12-22T01:55:41.450Z,73.63
2022-12-22T01:58:36.503Z,74.10
2022-12-22T02:01:23.239Z,72.85
2022-12-22T02:04:09.789Z,69.93
2022-12-22T02:07:00.409Z,70.45
2022-12-22T02:09:55.303Z,73.00
2022-12-22T02:13:20.437Z,81.65
2022-12-22T02:16:38.393Z,70.57
2022-12-22T02:19:43.037Z,82.20
2022-12-22T02:22:42.571Z,70.97
2022-12-22T02:25:55.213Z,71.55
2022-12-22T02:28:42.441Z,70.15
2022-12-22T02:31:28.704Z,69.43
2022-12-22T02:34:14.508Z,75.43
2022-12-22T02:37:39.068Z,69.47
2022-12-22T02:40:41.403Z,75.53
2022-12-22T02:44:01.920Z,79.63
2022-12-22T02:47:03.509Z,72.43
2022-12-22T02:50:10.063Z,63.67
2022-12-22T02:52:59.826Z,66.43
2022-12-22T02:55:47.005Z,67.03
2022-12-22T02:58:33.980Z,69.55
2022-12-22T03:01:23.075Z,63.63
2022-12-22T03:04:09.286Z,73.57
2022-12-22T03:06:56.360Z,75.75
2022-12-22T03:09:42.724Z,70.22
2022-12-22T03:12:28.775Z,82.32
2022-12-22T03:15:16.831Z,67.00
2022-12-22T03:18:02.692Z,75.18
2022-12-22T03:20:48.516Z,79.40
2022-12-22T03:23:34.526Z,68.15
2022-12-22T03:26:02.561Z,81.72
2022-12-22T03:38:25.575Z,76.88
2022-12-22T03:40:53.427Z,82.75
2022-12-22T03:43:39.360Z,70.80
2022-12-22T03:46:10.455Z,74.95
2022-12-22T03:48:37.982Z,70.40
2022-12-22T03:51:05.316Z,72.60
2022-12-22T03:53:32.828Z,73.97
2022-12-22T03:56:05.670Z,77.93
2022-12-22T03:58:34.948Z,78.43
2022-12-22T04:01:09.028Z,83.50
2022-12-22T04:03:36.284Z,85.05
2022-12-22T04:06:03.705Z,84.35
2022-12-22T04:08:31.012Z,80.35
2022-12-22T04:11:16.760Z,90.05
2022-12-22T04:13:44.138Z,76.30
2022-12-22T04:34:42.971Z,86.85
2022-12-22T04:37:17.269Z,91.18
2022-12-22T04:39:45.022Z,87.60
2022-12-22T04:42:12.066Z,91.40
2022-12-22T04:44:39.211Z,87.85
2022-12-22T04:47:06.667Z,92.10
2022-12-22T04:49:34.029Z,80.07
2022-12-22T04:55:18.050Z,82.47
2022-12-22T04:57:45.457Z,87.72
2022-12-22T05:00:13.300Z,83.78
2022-12-22T05:02:40.910Z,84.32
2022-12-22T05:05:08.860Z,79.40
2022-12-22T05:07:36.666Z,84.95
2022-12-22T05:10:07.298Z,89.13
2022-12-22T05:12:53.034Z,84.20
2022-12-22T05:15:25.229Z,80.47
2022-12-22T05:17:53.367Z,100.78
2022-12-22T05:20:21.882Z,83.10
2022-12-22T05:22:50.212Z,157.55
2022-12-22T05:25:17.904Z,95.65
2022-12-22T05:27:45.955Z,85.57
2022-12-22T05:30:14.728Z,85.22
2022-12-22T05:32:42.501Z,126.80
2022-12-22T05:35:11.159Z,79.43
2022-12-22T05:37:38.886Z,95.00
2022-12-22T05:40:07.937Z,98.25
2022-12-22T05:42:38.237Z,89.70
2022-12-22T05:45:12.414Z,82.38
2022-12-22T05:47:40.736Z,105.68
2022-12-22T05:50:09.325Z,125.80
2022-12-22T05:52:37.282Z,180.50
2022-12-22T05:55:06.036Z,273.63
2022-12-22T05:57:36.981Z,203.23
2022-12-22T06:00:09.334Z,113.13
2022-12-22T06:02:40.862Z,109.50
2022-12-22T06:05:09.417Z,124.00
2022-12-22T06:07:37.158Z,130.30
2022-12-22T06:10:12.388Z,98.72
2022-12-22T06:12:44.694Z,103.30
2022-12-22T06:15:14.411Z,84.60
2022-12-22T06:17:44.895Z,70.82
2022-12-22T06:20:13.792Z,83.43
2022-12-22T06:22:41.376Z,88.75
2022-12-22T06:25:12.213Z,97.00
2022-12-22T06:27:44.857Z,90.55
2022-12-22T06:30:15.241Z,98.20
2022-12-22T06:32:44.094Z,89.15
2022-12-22T06:35:11.643Z,91.82
2022-12-22T06:37:39.557Z,84.85
2022-12-22T06:40:08.484Z,91.03
2022-12-22T06:42:54.311Z,92.53
2022-12-22T06:45:22.254Z,92.65
2022-12-22T06:47:49.946Z,94.35
2022-12-22T06:50:17.671Z,100.60
2022-12-22T06:52:45.254Z,102.93
2022-12-22T06:55:12.853Z,87.68
2022-12-22T06:57:40.519Z,87.78
2022-12-22T07:00:09.875Z,88.32
2022-12-22T07:02:37.508Z,82.93
2022-12-22T07:05:05.342Z,85.13
2022-12-22T07:07:35.163Z,92.97
2022-12-22T07:10:02.716Z,123.00
2022-12-22T07:12:30.306Z,126.53
2022-12-22T07:14:57.807Z,103.57
2022-12-22T07:17:25.567Z,97.55
2022-12-22T07:19:53.085Z,99.80
2022-12-22T07:22:25.638Z,103.40
2022-12-22T07:24:56.871Z,88.38
2022-12-22T07:27:24.443Z,99.35
2022-12-22T07:29:51.762Z,119.40
2022-12-22T07:32:18.945Z,130.23
2022-12-22T07:34:46.277Z,107.65
2022-12-22T07:37:13.988Z,109.75
2022-12-22T07:39:41.521Z,106.75
2022-12-22T07:42:30.331Z,107.55
2022-12-22T07:44:57.900Z,99.25
2022-12-22T07:47:28.588Z,112.53
2022-12-22T07:50:18.886Z,90.95
2022-12-22T07:52:46.170Z,79.72
2022-12-22T07:55:14.361Z,77.05
2022-12-22T07:57:41.783Z,116.07
2022-12-22T08:00:11.298Z,96.32
2022-12-22T08:02:41.606Z,96.03
2022-12-22T08:05:10.448Z,121.50
2022-12-22T08:07:37.985Z,131.38
2022-12-22T08:10:05.774Z,109.13
2022-12-22T08:12:33.545Z,91.05
2022-12-22T08:15:01.084Z,83.65
2022-12-22T08:17:29.265Z,86.07
2022-12-22T08:19:56.793Z,79.63
2022-12-22T08:22:25.064Z,85.18
2022-12-22T08:24:53.460Z,84.95
2022-12-22T08:27:32.164Z,79.65
2022-12-22T08:30:01.447Z,78.78
2022-12-22T08:32:28.915Z,99.72
2022-12-22T08:34:56.406Z,93.60
2022-12-22T08:37:26.557Z,91.68
2022-12-22T08:39:58.552Z,98.78
2022-12-22T08:42:26.363Z,91.93
2022-12-22T08:44:53.662Z,83.00
2022-12-22T08:47:21.743Z,98.63
2022-12-22T08:49:49.801Z,84.80
2022-12-22T08:52:19.365Z,94.30
2022-12-22T08:54:47.129Z,91.95
2022-12-22T08:57:14.232Z,93.10
2022-12-22T08:59:41.266Z,92.15
2022-12-22T09:02:08.610Z,95.15
2022-12-22T09:04:36.808Z,96.63
2022-12-22T09:07:04.004Z,88.38
2022-12-22T09:09:34.723Z,85.28
2022-12-22T09:12:03.002Z,92.22
2022-12-22T09:14:31.048Z,89.97
2022-12-22T09:16:58.145Z,102.57
2022-12-22T09:19:25.313Z,96.47
2022-12-22T09:21:52.411Z,88.32
2022-12-22T09:24:19.472Z,81.97
2022-12-22T09:26:46.915Z,94.50
2022-12-22T09:29:15.606Z,83.38
2022-12-22T09:31:43.524Z,94.10
2022-12-22T09:34:17.095Z,89.65
2022-12-22T09:36:45.332Z,128.82
2022-12-22T09:39:12.675Z,96.72
2022-12-22T09:41:45.029Z,92.60
2022-12-22T09:44:27.264Z,104.30
2022-12-22T09:46:57.700Z,114.93
2022-12-22T09:49:25.563Z,120.45
2022-12-22T09:52:01.424Z,103.50
2022-12-22T09:54:30.290Z,113.40
2022-12-22T09:56:58.090Z,122.45
2022-12-22T09:59:28.344Z,114.63
2022-12-22T10:02:21.880Z,110.50
2022-12-22T10:05:06.737Z,95.90
2022-12-22T10:07:40.165Z,127.95
2022-12-22T10:10:17.241Z,116.90
2022-12-22T10:12:44.382Z,99.40
2022-12-22T10:15:18.291Z,94.18
2022-12-22T10:17:51.435Z,105.78
2022-12-22T10:20:21.939Z,82.10
2022-12-22T10:22:53.419Z,91.72
2022-12-22T10:26:26.296Z,90.25
2022-12-22T10:28:36.932Z,101.15
2022-12-22T10:31:31.272Z,93.30
2022-12-22T10:34:15.555Z,100.82
2022-12-22T10:36:50.928Z,83.32
2022-12-22T10:39:30.675Z,100.22
2022-12-22T10:42:09.410Z,96.45
2022-12-22T10:44:38.631Z,87.20
2022-12-22T10:47:24.726Z,71.55
2022-12-22T10:52:30.524Z,98.47
2022-12-22T10:55:16.961Z,85.55
2022-12-22T10:57:44.197Z,89.15
2022-12-22T11:00:32.090Z,63.42
2022-12-22T11:03:01.828Z,86.03
2022-12-22T11:05:29.816Z,91.57
2022-12-22T11:08:01.186Z,79.03
2022-12-22T11:10:31.059Z,89.70
2022-12-22T11:13:10.033Z,83.25
2022-12-22T11:15:55.874Z,102.22
2022-12-22T11:18:30.239Z,105.88
2022-12-22T11:21:07.467Z,106.88
2022-12-22T11:24:01.300Z,94.75
2022-12-22T11:26:46.093Z,82.30
2022-12-22T11:29:35.468Z,70.78
2022-12-22T11:32:09.129Z,79.32
2022-12-22T11:34:57.195Z,88.22
2022-12-22T11:37:42.919Z,88.40
2022-12-22T11:40:28.861Z,77.93
2022-12-22T11:43:26.165Z,74.50
2022-12-22T11:46:24.271Z,78.45
2022-12-22T11:48:54.073Z,72.30
2022-12-22T11:51:42.986Z,74.90
2022-12-22T11:54:15.829Z,92.28
2022-12-22T11:59:26.095Z,93.82
2022-12-22T12:01:59.258Z,74.88
2022-12-22T12:05:08.109Z,79.05
2022-12-22T12:07:41.115Z,85.75
2022-12-22T12:10:25.618Z,85.47
2022-12-22T12:13:03.370Z,74.65
2022-12-22T12:15:32.609Z,90.47
2022-12-22T12:18:26.936Z,78.22
2022-12-22T12:21:22.582Z,80.78
2022-12-22T12:23:55.798Z,78.10
2022-12-22T12:26:29.234Z,94.75
2022-12-22T12:29:16.890Z,79.55
2022-12-22T12:31:54.429Z,75.72
2022-12-22T12:34:23.124Z,81.00
2022-12-22T12:36:57.036Z,74.93
2022-12-22T12:39:42.055Z,86.55
2022-12-22T12:42:26.061Z,99.95
2022-12-22T12:44:54.329Z,88.57
2022-12-22T12:47:22.734Z,74.97
2022-12-22T12:50:04.005Z,73.13
2022-12-22T12:53:20.217Z,80.47
2022-12-22T12:55:50.301Z,81.10
2022-12-22T12:58:35.900Z,72.40
2022-12-22T13:01:24.381Z,77.07
2022-12-22T13:04:07.070Z,80.22
2022-12-22T13:06:49.117Z,73.55
2022-12-22T13:12:49.322Z,75.63
2022-12-22T13:15:33.208Z,80.75
2022-12-22T13:18:03.039Z,77.38
2022-12-22T13:20:35.302Z,69.35
2022-12-22T13:23:05.086Z,112.97
2022-12-22T13:25:49.154Z,91.32
2022-12-22T13:28:18.237Z,77.47
2022-12-22T13:30:58.144Z,84.03
2022-12-22T13:33:30.414Z,94.43
2022-12-22T13:35:59.306Z,77.82
2022-12-22T13:38:35.188Z,87.90
2022-12-22T13:41:24.738Z,80.88
2022-12-22T13:43:58.523Z,85.78
2022-12-22T13:46:26.960Z,78.80
2022-12-22T13:48:57.032Z,83.78
2022-12-22T13:51:27.479Z,79.60
2022-12-22T13:54:12.603Z,89.43
2022-12-22T13:56:51.495Z,87.15
2022-12-22T13:59:35.031Z,87.40
2022-12-22T14:02:09.648Z,76.95
2022-12-22T14:04:38.662Z,81.97
2022-12-22T14:07:13.939Z,88.57
2022-12-22T14:09:49.702Z,87.43
2022-12-22T14:12:23.495Z,102.57
2022-12-22T14:14:53.496Z,89.85
2022-12-22T14:17:30.115Z,90.35
2022-12-22T14:20:01.711Z,102.38
2022-12-22T14:22:37.073Z,90.68
2022-12-22T14:25:20.331Z,83.45
2022-12-22T14:27:54.759Z,88.80
2022-12-22T14:30:38.475Z,94.35
2022-12-22T14:33:28.292Z,83.43
2022-12-22T14:36:22.400Z,89.55
2022-12-22T14:38:55.215Z,89.25
2022-12-22T14:41:42.360Z,108.07
2022-12-22T14:44:28.617Z,125.88
2022-12-22T14:47:04.889Z,157.00
2022-12-22T14:49:32.192Z,121.13
2022-12-22T14:52:06.964Z,108.68
2022-12-22T14:54:34.465Z,201.90
2022-12-22T14:57:15.725Z,107.10
2022-12-22T14:59:59.442Z,122.97
2022-12-22T15:02:40.103Z,118.18
2022-12-22T15:05:09.752Z,113.57
2022-12-22T15:08:08.579Z,132.35
